sensor_id;sensor_type;location;lat;lon;timestamp;P1;durP1;ratioP1;P2;durP2;ratioP2
19339;SDS011;9804;52.350;6.684;2022-12-01T00:01:54;85.87;;;30.47;;
19339;SDS011;9804;52.350;6.684;2022-12-01T00:04:20;85.73;;;29.70;;
19339;SDS011;9804;52.350;6.684;2022-12-01T00:06:45;80.50;;;28.93;;
19339;SDS011;9804;52.350;6.684;2022-12-01T00:09:10;83.57;;;30.23;;
19339;SDS011;9804;52.350;6.684;2022-12-01T00:11:54;77.33;;;28.30;;
19339;SDS011;9804;52.350;6.684;2022-12-01T00:14:19;74.53;;;27.30;;
19339;SDS011;9804;52.350;6.684;2022-12-01T00:16:45;86.07;;;30.80;;
19339;SDS011;9804;52.350;6.684;2022-12-01T00:19:10;79.93;;;29.43;;
19339;SDS011;9804;52.350;6.684;2022-12-01T00:21:35;88.97;;;32.57;;
19339;SDS011;9804;52.350;6.684;2022-12-01T00:24:01;85.70;;;30.70;;
19339;SDS011;9804;52.350;6.684;2022-12-01T00:26:26;91.17;;;31.40;;
19339;SDS011;9804;52.350;6.684;2022-12-01T00:28:53;81.50;;;30.23;;
19339;SDS011;9804;52.350;6.684;2022-12-01T00:31:19;93.30;;;33.13;;
19339;SDS011;9804;52.350;6.684;2022-12-01T00:33:45;81.87;;;30.03;;
19339;SDS011;9804;52.350;6.684;2022-12-01T00:36:10;86.97;;;30.73;;
19339;SDS011;9804;52.350;6.684;2022-12-01T00:38:36;82.87;;;30.67;;
19339;SDS011;9804;52.350;6.684;2022-12-01T00:41:02;80.90;;;27.97;;
19339;SDS011;9804;52.350;6.684;2022-12-01T00:43:27;78.30;;;29.50;;
19339;SDS011;9804;52.350;6.684;2022-12-01T00:45:53;80.80;;;28.80;;
19339;SDS011;9804;52.350;6.684;2022-12-01T00:48:20;79.93;;;29.53;;
19339;SDS011;9804;52.350;6.684;2022-12-01T00:50:45;78.97;;;30.30;;
19339;SDS011;9804;52.350;6.684;2022-12-01T00:53:11;80.30;;;30.60;;
19339;SDS011;9804;52.350;6.684;2022-12-01T00:55:37;84.23;;;30.90;;
19339;SDS011;9804;52.350;6.684;2022-12-01T00:58:04;76.00;;;30.23;;
19339;SDS011;9804;52.350;6.684;2022-12-01T01:00:29;80.50;;;30.37;;
19339;SDS011;9804;52.350;6.684;2022-12-01T01:02:54;80.20;;;30.97;;
19339;SDS011;9804;52.350;6.684;2022-12-01T01:05:20;78.30;;;28.13;;
19339;SDS011;9804;52.350;6.684;2022-12-01T01:07:45;81.43;;;31.70;;
19339;SDS011;9804;52.350;6.684;2022-12-01T01:10:10;90.33;;;31.40;;
19339;SDS011;9804;52.350;6.684;2022-12-01T01:12:36;82.60;;;30.70;;
19339;SDS011;9804;52.350;6.684;2022-12-01T01:15:02;92.43;;;32.53;;
19339;SDS011;9804;52.350;6.684;2022-12-01T01:17:29;100.30;;;32.83;;
19339;SDS011;9804;52.350;6.684;2022-12-01T01:19:54;104.63;;;34.00;;
19339;SDS011;9804;52.350;6.684;2022-12-01T01:22:19;103.17;;;34.23;;
19339;SDS011;9804;52.350;6.684;2022-12-01T01:24:45;108.53;;;34.97;;
19339;SDS011;9804;52.350;6.684;2022-12-01T01:27:10;99.63;;;34.07;;
19339;SDS011;9804;52.350;6.684;2022-12-01T01:29:35;103.20;;;35.87;;
19339;SDS011;9804;52.350;6.684;2022-12-01T01:32:01;96.10;;;33.80;;
19339;SDS011;9804;52.350;6.684;2022-12-01T01:34:28;96.73;;;33.80;;
19339;SDS011;9804;52.350;6.684;2022-12-01T01:36:53;96.00;;;34.43;;
19339;SDS011;9804;52.350;6.684;2022-12-01T01:39:18;91.80;;;32.90;;
19339;SDS011;9804;52.350;6.684;2022-12-01T01:41:44;90.10;;;32.47;;
19339;SDS011;9804;52.350;6.684;2022-12-01T01:47:12;89.57;;;32.20;;
19339;SDS011;9804;52.350;6.684;2022-12-01T01:49:38;100.90;;;33.20;;
19339;SDS011;9804;52.350;6.684;2022-12-01T01:52:04;99.07;;;34.77;;
19339;SDS011;9804;52.350;6.684;2022-12-01T01:54:31;88.67;;;33.70;;
19339;SDS011;9804;52.350;6.684;2022-12-01T01:56:59;95.17;;;33.03;;
19339;SDS011;9804;52.350;6.684;2022-12-01T01:59:30;95.87;;;33.70;;
19339;SDS011;9804;52.350;6.684;2022-12-01T02:02:02;92.63;;;33.57;;
19339;SDS011;9804;52.350;6.684;2022-12-01T02:04:40;90.93;;;33.47;;
19339;SDS011;9804;52.350;6.684;2022-12-01T02:07:09;96.27;;;34.43;;
19339;SDS011;9804;52.350;6.684;2022-12-01T02:09:36;91.47;;;34.93;;
19339;SDS011;9804;52.350;6.684;2022-12-01T02:15:05;90.00;;;33.23;;
19339;SDS011;9804;52.350;6.684;2022-12-01T02:17:52;88.50;;;34.90;;
19339;SDS011;9804;52.350;6.684;2022-12-01T02:31:38;100.97;;;36.27;;
19339;SDS011;9804;52.350;6.684;2022-12-01T02:34:21;113.40;;;38.17;;
19339;SDS011;9804;52.350;6.684;2022-12-01T02:37:09;106.57;;;36.63;;
19339;SDS011;9804;52.350;6.684;2022-12-01T02:45:35;105.77;;;37.70;;
19339;SDS011;9804;52.350;6.684;2022-12-01T02:48:24;101.43;;;37.37;;
19339;SDS011;9804;52.350;6.684;2022-12-01T02:50:52;105.77;;;37.73;;
19339;SDS011;9804;52.350;6.684;2022-12-01T02:53:20;112.90;;;38.07;;
19339;SDS011;9804;52.350;6.684;2022-12-01T02:55:47;107.97;;;38.13;;
19339;SDS011;9804;52.350;6.684;2022-12-01T02:58:16;102.20;;;37.50;;
19339;SDS011;9804;52.350;6.684;2022-12-01T03:00:45;96.23;;;36.47;;
19339;SDS011;9804;52.350;6.684;2022-12-01T03:03:24;97.17;;;38.27;;
19339;SDS011;9804;52.350;6.684;2022-12-01T03:06:09;90.83;;;36.83;;
19339;SDS011;9804;52.350;6.684;2022-12-01T03:17:55;81.40;;;35.07;;
19339;SDS011;9804;52.350;6.684;2022-12-01T03:23:21;83.10;;;34.60;;
19339;SDS011;9804;52.350;6.684;2022-12-01T03:25:49;87.80;;;36.13;;
19339;SDS011;9804;52.350;6.684;2022-12-01T03:28:19;85.93;;;36.13;;
19339;SDS011;9804;52.350;6.684;2022-12-01T03:30:52;86.20;;;37.40;;
19339;SDS011;9804;52.350;6.684;2022-12-01T03:33:24;85.07;;;36.00;;
19339;SDS011;9804;52.350;6.684;2022-12-01T03:38:31;77.57;;;34.30;;
19339;SDS011;9804;52.350;6.684;2022-12-01T03:41:00;91.33;;;36.13;;
19339;SDS011;9804;52.350;6.684;2022-12-01T03:43:33;83.93;;;35.53;;
19339;SDS011;9804;52.350;6.684;2022-12-01T03:46:07;84.13;;;36.40;;
19339;SDS011;9804;52.350;6.684;2022-12-01T03:48:41;84.33;;;35.30;;
19339;SDS011;9804;52.350;6.684;2022-12-01T03:51:29;90.60;;;36.30;;
19339;SDS011;9804;52.350;6.684;2022-12-01T03:54:04;89.17;;;34.50;;
19339;SDS011;9804;52.350;6.684;2022-12-01T03:56:37;81.60;;;34.63;;
19339;SDS011;9804;52.350;6.684;2022-12-01T03:59:09;87.17;;;35.07;;
19339;SDS011;9804;52.350;6.684;2022-12-01T04:01:36;84.43;;;36.53;;
19339;SDS011;9804;52.350;6.684;2022-12-01T04:04:02;91.43;;;36.07;;
19339;SDS011;9804;52.350;6.684;2022-12-01T04:06:32;85.90;;;35.10;;
19339;SDS011;9804;52.350;6.684;2022-12-01T04:08:58;90.20;;;37.60;;
19339;SDS011;9804;52.350;6.684;2022-12-01T04:11:24;85.50;;;35.47;;
19339;SDS011;9804;52.350;6.684;2022-12-01T04:14:08;97.57;;;37.00;;
19339;SDS011;9804;52.350;6.684;2022-12-01T04:16:33;86.23;;;36.20;;
19339;SDS011;9804;52.350;6.684;2022-12-01T04:18:58;87.03;;;35.40;;
19339;SDS011;9804;52.350;6.684;2022-12-01T04:21:24;91.27;;;36.43;;
19339;SDS011;9804;52.350;6.684;2022-12-01T04:23:49;91.70;;;36.53;;
19339;SDS011;9804;52.350;6.684;2022-12-01T04:26:27;93.90;;;37.00;;
19339;SDS011;9804;52.350;6.684;2022-12-01T04:28:54;82.13;;;35.57;;
19339;SDS011;9804;52.350;6.684;2022-12-01T04:31:19;91.53;;;37.47;;
19339;SDS011;9804;52.350;6.684;2022-12-01T04:33:45;90.20;;;37.77;;
19339;SDS011;9804;52.350;6.684;2022-12-01T04:36:10;91.17;;;36.80;;
19339;SDS011;9804;52.350;6.684;2022-12-01T04:38:35;84.10;;;35.20;;
19339;SDS011;9804;52.350;6.684;2022-12-01T04:41:06;91.13;;;36.70;;
19339;SDS011;9804;52.350;6.684;2022-12-01T04:43:35;93.27;;;35.50;;
19339;SDS011;9804;52.350;6.684;2022-12-01T04:46:01;92.50;;;37.37;;
19339;SDS011;9804;52.350;6.684;2022-12-01T04:48:27;94.97;;;37.20;;
19339;SDS011;9804;52.350;6.684;2022-12-01T04:50:53;89.23;;;36.87;;
19339;SDS011;9804;52.350;6.684;2022-12-01T04:53:18;89.13;;;35.30;;
19339;SDS011;9804;52.350;6.684;2022-12-01T04:55:44;96.87;;;37.87;;
19339;SDS011;9804;52.350;6.684;2022-12-01T04:58:09;93.00;;;37.63;;
19339;SDS011;9804;52.350;6.684;2022-12-01T05:00:35;88.70;;;36.53;;
19339;SDS011;9804;52.350;6.684;2022-12-01T05:03:01;103.10;;;38.00;;
19339;SDS011;9804;52.350;6.684;2022-12-01T05:05:27;98.03;;;37.53;;
19339;SDS011;9804;52.350;6.684;2022-12-01T05:07:53;100.93;;;37.40;;
19339;SDS011;9804;52.350;6.684;2022-12-01T05:10:18;98.50;;;37.23;;
19339;SDS011;9804;52.350;6.684;2022-12-01T05:12:44;103.90;;;38.97;;
19339;SDS011;9804;52.350;6.684;2022-12-01T05:15:12;103.37;;;39.60;;
19339;SDS011;9804;52.350;6.684;2022-12-01T05:17:38;112.03;;;38.77;;
19339;SDS011;9804;52.350;6.684;2022-12-01T05:20:04;109.27;;;39.40;;
19339;SDS011;9804;52.350;6.684;2022-12-01T05:22:48;107.13;;;37.63;;
19339;SDS011;9804;52.350;6.684;2022-12-01T05:25:13;114.60;;;40.67;;
19339;SDS011;9804;52.350;6.684;2022-12-01T05:27:39;112.53;;;39.00;;
19339;SDS011;9804;52.350;6.684;2022-12-01T05:30:04;104.23;;;38.37;;
19339;SDS011;9804;52.350;6.684;2022-12-01T05:32:30;113.33;;;40.10;;
19339;SDS011;9804;52.350;6.684;2022-12-01T05:34:55;113.33;;;39.53;;
19339;SDS011;9804;52.350;6.684;2022-12-01T05:37:21;120.83;;;42.63;;
19339;SDS011;9804;52.350;6.684;2022-12-01T05:39:46;116.80;;;39.47;;
19339;SDS011;9804;52.350;6.684;2022-12-01T05:42:11;118.60;;;42.23;;
19339;SDS011;9804;52.350;6.684;2022-12-01T05:44:37;121.43;;;41.30;;
19339;SDS011;9804;52.350;6.684;2022-12-01T05:47:03;115.37;;;40.00;;
19339;SDS011;9804;52.350;6.684;2022-12-01T05:49:28;121.17;;;39.63;;
19339;SDS011;9804;52.350;6.684;2022-12-01T05:51:53;117.43;;;41.50;;
19339;SDS011;9804;52.350;6.684;2022-12-01T05:54:19;127.27;;;42.07;;
19339;SDS011;9804;52.350;6.684;2022-12-01T05:56:44;123.87;;;41.27;;
19339;SDS011;9804;52.350;6.684;2022-12-01T05:59:09;114.23;;;39.80;;
19339;SDS011;9804;52.350;6.684;2022-12-01T06:01:35;127.80;;;42.73;;
19339;SDS011;9804;52.350;6.684;2022-12-01T06:04:00;128.63;;;41.73;;
19339;SDS011;9804;52.350;6.684;2022-12-01T06:06:25;134.80;;;41.73;;
19339;SDS011;9804;52.350;6.684;2022-12-01T06:08:51;133.83;;;41.40;;
19339;SDS011;9804;52.350;6.684;2022-12-01T06:11:16;130.97;;;42.57;;
19339;SDS011;9804;52.350;6.684;2022-12-01T06:13:41;131.13;;;42.10;;
19339;SDS011;9804;52.350;6.684;2022-12-01T06:16:07;124.90;;;42.57;;
19339;SDS011;9804;52.350;6.684;2022-12-01T06:18:33;126.77;;;41.77;;
19339;SDS011;9804;52.350;6.684;2022-12-01T06:21:00;120.80;;;41.47;;
19339;SDS011;9804;52.350;6.684;2022-12-01T06:23:26;132.17;;;43.43;;
19339;SDS011;9804;52.350;6.684;2022-12-01T06:25:52;121.73;;;41.20;;
19339;SDS011;9804;52.350;6.684;2022-12-01T06:28:17;126.23;;;40.27;;
19339;SDS011;9804;52.350;6.684;2022-12-01T06:30:43;115.27;;;41.70;;
19339;SDS011;9804;52.350;6.684;2022-12-01T06:33:09;124.17;;;43.13;;
19339;SDS011;9804;52.350;6.684;2022-12-01T06:35:34;113.57;;;40.10;;
19339;SDS011;9804;52.350;6.684;2022-12-01T06:38:00;126.70;;;42.93;;
19339;SDS011;9804;52.350;6.684;2022-12-01T06:40:26;117.60;;;40.50;;
19339;SDS011;9804;52.350;6.684;2022-12-01T06:42:52;112.60;;;42.23;;
19339;SDS011;9804;52.350;6.684;2022-12-01T06:45:17;116.70;;;41.30;;
19339;SDS011;9804;52.350;6.684;2022-12-01T06:47:43;115.17;;;40.90;;
19339;SDS011;9804;52.350;6.684;2022-12-01T06:50:08;117.87;;;40.57;;
19339;SDS011;9804;52.350;6.684;2022-12-01T06:52:36;107.23;;;39.33;;
19339;SDS011;9804;52.350;6.684;2022-12-01T06:55:02;102.73;;;39.80;;
19339;SDS011;9804;52.350;6.684;2022-12-01T06:57:28;98.90;;;37.43;;
19339;SDS011;9804;52.350;6.684;2022-12-01T06:59:54;103.67;;;39.37;;
19339;SDS011;9804;52.350;6.684;2022-12-01T07:02:19;107.33;;;38.83;;
19339;SDS011;9804;52.350;6.684;2022-12-01T07:04:45;102.10;;;38.27;;
19339;SDS011;9804;52.350;6.684;2022-12-01T07:07:10;94.57;;;36.90;;
19339;SDS011;9804;52.350;6.684;2022-12-01T07:09:36;103.07;;;37.37;;
19339;SDS011;9804;52.350;6.684;2022-12-01T07:12:02;107.90;;;37.73;;
19339;SDS011;9804;52.350;6.684;2022-12-01T07:14:28;97.67;;;36.37;;
19339;SDS011;9804;52.350;6.684;2022-12-01T07:16:54;96.40;;;36.67;;
19339;SDS011;9804;52.350;6.684;2022-12-01T07:19:20;99.83;;;36.80;;
19339;SDS011;9804;52.350;6.684;2022-12-01T07:21:45;100.77;;;36.17;;
19339;SDS011;9804;52.350;6.684;2022-12-01T07:24:10;90.23;;;35.13;;
19339;SDS011;9804;52.350;6.684;2022-12-01T07:26:38;96.80;;;35.87;;
19339;SDS011;9804;52.350;6.684;2022-12-01T07:29:05;97.50;;;36.20;;
19339;SDS011;9804;52.350;6.684;2022-12-01T07:31:30;91.43;;;35.40;;
19339;SDS011;9804;52.350;6.684;2022-12-01T07:33:55;97.37;;;37.07;;
19339;SDS011;9804;52.350;6.684;2022-12-01T07:36:21;98.73;;;35.63;;
19339;SDS011;9804;52.350;6.684;2022-12-01T07:38:46;96.50;;;36.03;;
19339;SDS011;9804;52.350;6.684;2022-12-01T07:41:15;92.60;;;34.90;;
19339;SDS011;9804;52.350;6.684;2022-12-01T07:43:45;91.33;;;35.33;;
19339;SDS011;9804;52.350;6.684;2022-12-01T07:46:21;93.17;;;34.17;;
19339;SDS011;9804;52.350;6.684;2022-12-01T07:48:49;97.97;;;35.07;;
19339;SDS011;9804;52.350;6.684;2022-12-01T07:51:15;94.00;;;36.40;;
19339;SDS011;9804;52.350;6.684;2022-12-01T07:53:41;93.43;;;35.53;;
19339;SDS011;9804;52.350;6.684;2022-12-01T07:56:08;92.70;;;35.00;;
19339;SDS011;9804;52.350;6.684;2022-12-01T07:58:33;95.77;;;33.87;;
19339;SDS011;9804;52.350;6.684;2022-12-01T08:01:04;96.73;;;35.33;;
19339;SDS011;9804;52.350;6.684;2022-12-01T08:03:33;96.90;;;36.60;;
19339;SDS011;9804;52.350;6.684;2022-12-01T08:05:59;91.87;;;36.53;;
19339;SDS011;9804;52.350;6.684;2022-12-01T08:08:25;98.20;;;35.83;;
19339;SDS011;9804;52.350;6.684;2022-12-01T08:10:51;93.50;;;35.60;;
19339;SDS011;9804;52.350;6.684;2022-12-01T08:13:17;98.60;;;37.00;;
19339;SDS011;9804;52.350;6.684;2022-12-01T08:15:43;88.60;;;35.63;;
19339;SDS011;9804;52.350;6.684;2022-12-01T08:18:08;109.87;;;36.10;;
19339;SDS011;9804;52.350;6.684;2022-12-01T08:20:33;98.90;;;36.73;;
19339;SDS011;9804;52.350;6.684;2022-12-01T08:22:59;102.10;;;36.37;;
19339;SDS011;9804;52.350;6.684;2022-12-01T08:25:25;101.83;;;38.20;;
19339;SDS011;9804;52.350;6.684;2022-12-01T08:27:51;97.60;;;38.27;;
19339;SDS011;9804;52.350;6.684;2022-12-01T08:30:17;98.83;;;38.17;;
19339;SDS011;9804;52.350;6.684;2022-12-01T08:32:42;106.77;;;38.43;;
19339;SDS011;9804;52.350;6.684;2022-12-01T08:35:08;104.60;;;39.33;;
19339;SDS011;9804;52.350;6.684;2022-12-01T08:37:33;104.00;;;38.97;;
19339;SDS011;9804;52.350;6.684;2022-12-01T08:39:58;101.17;;;37.57;;
19339;SDS011;9804;52.350;6.684;2022-12-01T08:42:24;94.47;;;37.33;;
19339;SDS011;9804;52.350;6.684;2022-12-01T08:44:49;103.60;;;38.57;;
19339;SDS011;9804;52.350;6.684;2022-12-01T08:47:14;94.93;;;36.83;;
19339;SDS011;9804;52.350;6.684;2022-12-01T08:49:40;98.87;;;38.67;;
19339;SDS011;9804;52.350;6.684;2022-12-01T08:52:05;97.10;;;39.27;;
19339;SDS011;9804;52.350;6.684;2022-12-01T08:54:30;92.77;;;37.23;;
19339;SDS011;9804;52.350;6.684;2022-12-01T08:56:56;110.80;;;39.63;;
19339;SDS011;9804;52.350;6.684;2022-12-01T08:59:21;99.00;;;37.90;;
19339;SDS011;9804;52.350;6.684;2022-12-01T09:01:46;98.73;;;37.83;;
19339;SDS011;9804;52.350;6.684;2022-12-01T09:04:18;105.80;;;38.80;;
19339;SDS011;9804;52.350;6.684;2022-12-01T09:06:45;91.03;;;36.33;;
19339;SDS011;9804;52.350;6.684;2022-12-01T09:09:13;101.20;;;38.57;;
19339;SDS011;9804;52.350;6.684;2022-12-01T09:11:41;107.43;;;38.07;;
19339;SDS011;9804;52.350;6.684;2022-12-01T09:14:10;96.43;;;35.93;;
19339;SDS011;9804;52.350;6.684;2022-12-01T09:16:36;91.20;;;36.13;;
19339;SDS011;9804;52.350;6.684;2022-12-01T09:19:03;91.93;;;35.40;;
19339;SDS011;9804;52.350;6.684;2022-12-01T09:21:29;95.30;;;38.17;;
19339;SDS011;9804;52.350;6.684;2022-12-01T09:23:55;96.60;;;37.57;;
19339;SDS011;9804;52.350;6.684;2022-12-01T09:26:21;99.40;;;38.40;;
19339;SDS011;9804;52.350;6.684;2022-12-01T09:28:57;95.07;;;37.00;;
19339;SDS011;9804;52.350;6.684;2022-12-01T09:31:27;91.03;;;35.33;;
19339;SDS011;9804;52.350;6.684;2022-12-01T09:33:57;94.63;;;35.20;;
19339;SDS011;9804;52.350;6.684;2022-12-01T09:36:24;85.43;;;34.37;;
19339;SDS011;9804;52.350;6.684;2022-12-01T09:38:50;91.93;;;36.03;;
19339;SDS011;9804;52.350;6.684;2022-12-01T09:47:12;91.37;;;35.53;;
19339;SDS011;9804;52.350;6.684;2022-12-01T09:50:10;89.83;;;34.23;;
19339;SDS011;9804;52.350;6.684;2022-12-01T09:52:46;86.40;;;34.07;;
19339;SDS011;9804;52.350;6.684;2022-12-01T09:55:16;86.93;;;34.13;;
19339;SDS011;9804;52.350;6.684;2022-12-01T09:57:45;79.40;;;32.60;;
19339;SDS011;9804;52.350;6.684;2022-12-01T10:00:16;87.30;;;34.33;;
19339;SDS011;9804;52.350;6.684;2022-12-01T10:05:48;82.60;;;32.73;;
19339;SDS011;9804;52.350;6.684;2022-12-01T10:08:20;79.60;;;33.27;;
19339;SDS011;9804;52.350;6.684;2022-12-01T10:10:50;73.07;;;32.17;;
19339;SDS011;9804;52.350;6.684;2022-12-01T10:13:19;79.97;;;33.00;;
19339;SDS011;9804;52.350;6.684;2022-12-01T10:18:25;68.77;;;31.47;;
19339;SDS011;9804;52.350;6.684;2022-12-01T10:30:14;79.97;;;33.87;;
19339;SDS011;9804;52.350;6.684;2022-12-01T10:32:52;82.47;;;33.27;;
19339;SDS011;9804;52.350;6.684;2022-12-01T10:35:21;73.80;;;31.90;;
19339;SDS011;9804;52.350;6.684;2022-12-01T10:37:50;74.30;;;32.53;;
19339;SDS011;9804;52.350;6.684;2022-12-01T10:40:25;77.73;;;32.10;;
19339;SDS011;9804;52.350;6.684;2022-12-01T10:42:51;69.83;;;31.57;;
19339;SDS011;9804;52.350;6.684;2022-12-01T10:45:19;72.00;;;32.37;;
19339;SDS011;9804;52.350;6.684;2022-12-01T10:48:06;76.43;;;32.07;;
19339;SDS011;9804;52.350;6.684;2022-12-01T10:50:32;71.03;;;31.73;;
19339;SDS011;9804;52.350;6.684;2022-12-01T10:52:58;76.70;;;31.73;;
19339;SDS011;9804;52.350;6.684;2022-12-01T10:55:28;72.83;;;31.87;;
19339;SDS011;9804;52.350;6.684;2022-12-01T10:57:56;70.37;;;31.43;;
19339;SDS011;9804;52.350;6.684;2022-12-01T11:00:31;72.43;;;30.93;;
19339;SDS011;9804;52.350;6.684;2022-12-01T11:03:01;71.78;;;31.60;;
19339;SDS011;9804;52.350;6.684;2022-12-01T11:05:28;66.83;;;31.03;;
19339;SDS011;9804;52.350;6.684;2022-12-01T11:07:57;72.47;;;30.57;;
19339;SDS011;9804;52.350;6.684;2022-12-01T11:15:49;74.43;;;32.03;;
19339;SDS011;9804;52.350;6.684;2022-12-01T11:18:28;73.70;;;32.57;;
19339;SDS011;9804;52.350;6.684;2022-12-01T11:23:34;65.43;;;29.70;;
19339;SDS011;9804;52.350;6.684;2022-12-01T11:26:05;66.97;;;29.70;;
19339;SDS011;9804;52.350;6.684;2022-12-01T11:28:40;64.83;;;29.57;;
19339;SDS011;9804;52.350;6.684;2022-12-01T11:31:16;64.23;;;29.87;;
19339;SDS011;9804;52.350;6.684;2022-12-01T11:36:21;62.80;;;29.37;;
19339;SDS011;9804;52.350;6.684;2022-12-01T11:39:01;57.67;;;27.47;;
19339;SDS011;9804;52.350;6.684;2022-12-01T11:41:31;62.23;;;28.33;;
19339;SDS011;9804;52.350;6.684;2022-12-01T11:44:01;58.03;;;26.90;;
19339;SDS011;9804;52.350;6.684;2022-12-01T11:46:34;60.30;;;27.90;;
19339;SDS011;9804;52.350;6.684;2022-12-01T11:49:04;59.60;;;29.13;;
19339;SDS011;9804;52.350;6.684;2022-12-01T11:51:33;58.87;;;27.83;;
19339;SDS011;9804;52.350;6.684;2022-12-01T11:54:06;54.80;;;26.90;;
19339;SDS011;9804;52.350;6.684;2022-12-01T11:56:37;63.33;;;27.17;;
19339;SDS011;9804;52.350;6.684;2022-12-01T11:59:04;55.63;;;27.67;;
19339;SDS011;9804;52.350;6.684;2022-12-01T12:20:55;56.87;;;27.43;;
19339;SDS011;9804;52.350;6.684;2022-12-01T12:28:51;62.03;;;28.90;;
19339;SDS011;9804;52.350;6.684;2022-12-01T12:34:01;67.43;;;30.23;;
19339;SDS011;9804;52.350;6.684;2022-12-01T12:39:31;60.87;;;28.17;;
19339;SDS011;9804;52.350;6.684;2022-12-01T12:42:06;60.37;;;28.77;;
19339;SDS011;9804;52.350;6.684;2022-12-01T12:44:46;62.40;;;29.13;;
19339;SDS011;9804;52.350;6.684;2022-12-01T12:50:22;59.17;;;27.70;;
19339;SDS011;9804;52.350;6.684;2022-12-01T12:52:49;64.17;;;29.40;;
19339;SDS011;9804;52.350;6.684;2022-12-01T12:55:32;55.87;;;27.93;;
19339;SDS011;9804;52.350;6.684;2022-12-01T13:01:06;57.27;;;27.30;;
19339;SDS011;9804;52.350;6.684;2022-12-01T13:06:29;48.70;;;24.57;;
19339;SDS011;9804;52.350;6.684;2022-12-01T13:12:00;52.30;;;25.67;;
19339;SDS011;9804;52.350;6.684;2022-12-01T13:14:53;53.77;;;26.30;;
19339;SDS011;9804;52.350;6.684;2022-12-01T13:17:20;50.50;;;25.27;;
19339;SDS011;9804;52.350;6.684;2022-12-01T13:19:49;49.40;;;25.83;;
19339;SDS011;9804;52.350;6.684;2022-12-01T13:22:15;52.83;;;25.80;;
19339;SDS011;9804;52.350;6.684;2022-12-01T13:24:43;55.20;;;27.00;;
19339;SDS011;9804;52.350;6.684;2022-12-01T13:29:35;58.53;;;28.77;;
19339;SDS011;9804;52.350;6.684;2022-12-01T13:32:03;57.07;;;27.77;;
19339;SDS011;9804;52.350;6.684;2022-12-01T13:34:32;61.53;;;28.93;;
19339;SDS011;9804;52.350;6.684;2022-12-01T13:37:06;66.13;;;29.93;;
19339;SDS011;9804;52.350;6.684;2022-12-01T13:39:33;62.53;;;30.63;;
19339;SDS011;9804;52.350;6.684;2022-12-01T13:42:02;60.40;;;27.83;;
19339;SDS011;9804;52.350;6.684;2022-12-01T13:44:30;63.67;;;29.97;;
19339;SDS011;9804;52.350;6.684;2022-12-01T13:49:37;58.30;;;28.20;;
19339;SDS011;9804;52.350;6.684;2022-12-01T13:57:46;63.53;;;28.97;;
19339;SDS011;9804;52.350;6.684;2022-12-01T14:00:24;61.47;;;28.70;;
19339;SDS011;9804;52.350;6.684;2022-12-01T14:08:14;58.00;;;28.60;;
19339;SDS011;9804;52.350;6.684;2022-12-01T14:10:51;58.10;;;28.27;;
19339;SDS011;9804;52.350;6.684;2022-12-01T14:13:18;58.73;;;28.37;;
19339;SDS011;9804;52.350;6.684;2022-12-01T14:15:49;58.13;;;28.03;;
19339;SDS011;9804;52.350;6.684;2022-12-01T14:18:31;58.60;;;28.50;;
19339;SDS011;9804;52.350;6.684;2022-12-01T14:21:02;57.13;;;28.93;;
19339;SDS011;9804;52.350;6.684;2022-12-01T14:23:31;55.13;;;27.57;;
19339;SDS011;9804;52.350;6.684;2022-12-01T14:31:19;55.73;;;26.53;;
19339;SDS011;9804;52.350;6.684;2022-12-01T14:33:51;53.00;;;25.70;;
19339;SDS011;9804;52.350;6.684;2022-12-01T14:38:51;55.67;;;26.33;;
19339;SDS011;9804;52.350;6.684;2022-12-01T14:41:30;59.93;;;26.43;;
19339;SDS011;9804;52.350;6.684;2022-12-01T14:44:03;58.40;;;26.77;;
19339;SDS011;9804;52.350;6.684;2022-12-01T14:46:39;58.20;;;26.80;;
19339;SDS011;9804;52.350;6.684;2022-12-01T14:49:12;62.20;;;28.37;;
19339;SDS011;9804;52.350;6.684;2022-12-01T14:51:44;66.10;;;27.93;;
19339;SDS011;9804;52.350;6.684;2022-12-01T14:54:55;58.00;;;27.23;;
19339;SDS011;9804;52.350;6.684;2022-12-01T14:57:07;65.63;;;29.07;;
19339;SDS011;9804;52.350;6.684;2022-12-01T14:59:33;72.20;;;31.60;;
19339;SDS011;9804;52.350;6.684;2022-12-01T15:02:02;76.73;;;32.10;;
19339;SDS011;9804;52.350;6.684;2022-12-01T15:04:33;87.13;;;33.23;;
19339;SDS011;9804;52.350;6.684;2022-12-01T15:07:21;76.70;;;31.97;;
19339;SDS011;9804;52.350;6.684;2022-12-01T15:09:59;85.77;;;33.33;;
19339;SDS011;9804;52.350;6.684;2022-12-01T15:12:26;92.37;;;34.80;;
19339;SDS011;9804;52.350;6.684;2022-12-01T15:14:52;86.47;;;34.13;;
19339;SDS011;9804;52.350;6.684;2022-12-01T15:17:30;88.50;;;33.77;;
19339;SDS011;9804;52.350;6.684;2022-12-01T15:19:58;87.17;;;33.60;;
19339;SDS011;9804;52.350;6.684;2022-12-01T15:22:25;88.07;;;34.10;;
19339;SDS011;9804;52.350;6.684;2022-12-01T15:24:54;89.17;;;33.10;;
19339;SDS011;9804;52.350;6.684;2022-12-01T15:27:31;89.13;;;34.63;;
19339;SDS011;9804;52.350;6.684;2022-12-01T15:29:57;90.03;;;34.67;;
19339;SDS011;9804;52.350;6.684;2022-12-01T15:32:28;102.33;;;36.70;;
19339;SDS011;9804;52.350;6.684;2022-12-01T15:34:55;109.07;;;36.87;;
19339;SDS011;9804;52.350;6.684;2022-12-01T15:37:25;103.73;;;37.17;;
19339;SDS011;9804;52.350;6.684;2022-12-01T15:39:56;104.90;;;38.43;;
19339;SDS011;9804;52.350;6.684;2022-12-01T15:42:29;110.77;;;37.50;;
19339;SDS011;9804;52.350;6.684;2022-12-01T15:44:58;101.13;;;39.17;;
19339;SDS011;9804;52.350;6.684;2022-12-01T15:47:34;106.07;;;39.30;;
19339;SDS011;9804;52.350;6.684;2022-12-01T15:53:04;100.37;;;38.53;;
19339;SDS011;9804;52.350;6.684;2022-12-01T15:55:35;100.13;;;37.07;;
19339;SDS011;9804;52.350;6.684;2022-12-01T15:58:06;107.03;;;37.63;;
19339;SDS011;9804;52.350;6.684;2022-12-01T16:00:32;93.63;;;37.97;;
19339;SDS011;9804;52.350;6.684;2022-12-01T16:02:59;96.93;;;38.20;;
19339;SDS011;9804;52.350;6.684;2022-12-01T16:05:26;101.77;;;39.07;;
19339;SDS011;9804;52.350;6.684;2022-12-01T16:07:55;109.20;;;38.20;;
19339;SDS011;9804;52.350;6.684;2022-12-01T16:10:25;102.77;;;39.67;;
19339;SDS011;9804;52.350;6.684;2022-12-01T16:16:17;108.87;;;39.77;;
19339;SDS011;9804;52.350;6.684;2022-12-01T16:18:53;113.13;;;41.33;;
19339;SDS011;9804;52.350;6.684;2022-12-01T16:21:21;117.70;;;43.47;;
19339;SDS011;9804;52.350;6.684;2022-12-01T16:23:47;115.87;;;43.40;;
19339;SDS011;9804;52.350;6.684;2022-12-01T16:26:13;110.97;;;42.60;;
19339;SDS011;9804;52.350;6.684;2022-12-01T16:28:38;118.93;;;41.63;;
19339;SDS011;9804;52.350;6.684;2022-12-01T16:31:04;114.67;;;43.93;;
19339;SDS011;9804;52.350;6.684;2022-12-01T16:33:31;122.63;;;43.07;;
19339;SDS011;9804;52.350;6.684;2022-12-01T16:36:01;116.57;;;43.70;;
19339;SDS011;9804;52.350;6.684;2022-12-01T16:38:27;112.83;;;42.80;;
19339;SDS011;9804;52.350;6.684;2022-12-01T16:40:57;113.13;;;42.23;;
19339;SDS011;9804;52.350;6.684;2022-12-01T16:43:24;113.73;;;41.73;;
19339;SDS011;9804;52.350;6.684;2022-12-01T16:45:58;109.50;;;41.03;;
19339;SDS011;9804;52.350;6.684;2022-12-01T16:48:25;110.70;;;40.97;;
19339;SDS011;9804;52.350;6.684;2022-12-01T16:50:50;107.70;;;41.83;;
19339;SDS011;9804;52.350;6.684;2022-12-01T16:53:17;108.07;;;41.17;;
19339;SDS011;9804;52.350;6.684;2022-12-01T16:55:48;117.27;;;43.60;;
19339;SDS011;9804;52.350;6.684;2022-12-01T16:58:16;108.97;;;40.93;;
19339;SDS011;9804;52.350;6.684;2022-12-01T17:00:41;112.20;;;43.93;;
19339;SDS011;9804;52.350;6.684;2022-12-01T17:03:07;108.77;;;41.87;;